sensor_id;sensor_type;location;lat;lon;timestamp;pressure;altitude;pressure_sealevel;temperature;humidity
69971;BME280;57301;50.328;8.542;2024-03-02T00:01:26;97316.53;;;6.51;84.30
69971;BME280;57301;50.328;8.542;2024-03-02T00:03:52;97320.06;;;6.33;85.44
69971;BME280;57301;50.328;8.542;2024-03-02T00:06:20;97321.72;;;6.08;85.87
69971;BME280;57301;50.328;8.542;2024-03-02T00:08:48;97312.88;;;6.26;85.37
69971;BME280;57301;50.328;8.542;2024-03-02T00:11:14;97315.22;;;6.29;85.75
69971;BME280;57301;50.328;8.542;2024-03-02T00:13:42;97308.34;;;6.44;84.60
69971;BME280;57301;50.328;8.542;2024-03-02T00:16:08;97307.31;;;6.37;84.48
69971;BME280;57301;50.328;8.542;2024-03-02T00:18:36;97306.00;;;6.33;84.28
69971;BME280;57301;50.328;8.542;2024-03-02T00:21:03;97306.63;;;6.27;84.33
69971;BME280;57301;50.328;8.542;2024-03-02T00:23:33;97308.19;;;6.19;83.47
69971;BME280;57301;50.328;8.542;2024-03-02T00:26:01;97298.53;;;6.02;83.97
69971;BME280;57301;50.328;8.542;2024-03-02T00:28:35;97294.50;;;5.98;83.54
69971;BME280;57301;50.328;8.542;2024-03-02T00:31:10;97302.66;;;5.87;83.72
69971;BME280;57301;50.328;8.542;2024-03-02T00:33:43;97301.19;;;5.66;84.71
69971;BME280;57301;50.328;8.542;2024-03-02T00:36:14;97300.03;;;5.51;84.83
69971;BME280;57301;50.328;8.542;2024-03-02T00:38:46;97299.78;;;4.91;86.12
69971;BME280;57301;50.328;8.542;2024-03-02T00:41:29;97304.25;;;5.26;83.93
69971;BME280;57301;50.328;8.542;2024-03-02T00:44:15;97304.78;;;4.84;84.19
69971;BME280;57301;50.328;8.542;2024-03-02T00:46:42;97315.63;;;4.91;83.70
69971;BME280;57301;50.328;8.542;2024-03-02T00:49:21;97313.06;;;4.72;84.82
69971;BME280;57301;50.328;8.542;2024-03-02T00:51:52;97309.72;;;4.42;86.04
69971;BME280;57301;50.328;8.542;2024-03-02T00:54:21;97314.81;;;4.53;85.60
69971;BME280;57301;50.328;8.542;2024-03-02T00:56:50;97313.53;;;4.57;84.94
69971;BME280;57301;50.328;8.542;2024-03-02T00:59:17;97321.38;;;4.49;85.33
69971;BME280;57301;50.328;8.542;2024-03-02T01:01:44;97308.41;;;4.56;85.36
69971;BME280;57301;50.328;8.542;2024-03-02T01:04:10;97309.16;;;4.48;86.99
69971;BME280;57301;50.328;8.542;2024-03-02T01:06:37;97305.38;;;4.51;86.60
69971;BME280;57301;50.328;8.542;2024-03-02T01:09:03;97306.59;;;4.56;86.09
69971;BME280;57301;50.328;8.542;2024-03-02T01:11:30;97321.13;;;4.33;86.80
69971;BME280;57301;50.328;8.542;2024-03-02T01:13:57;97321.69;;;4.37;86.24
69971;BME280;57301;50.328;8.542;2024-03-02T01:16:23;97321.53;;;4.38;86.83
69971;BME280;57301;50.328;8.542;2024-03-02T01:18:50;97325.41;;;4.44;86.11
69971;BME280;57301;50.328;8.542;2024-03-02T01:21:17;97317.19;;;3.90;88.32
69971;BME280;57301;50.328;8.542;2024-03-02T01:23:43;97320.50;;;4.12;87.56
69971;BME280;57301;50.328;8.542;2024-03-02T01:26:10;97318.56;;;4.04;86.22
69971;BME280;57301;50.328;8.542;2024-03-02T01:28:36;97321.09;;;3.86;87.48
69971;BME280;57301;50.328;8.542;2024-03-02T01:31:03;97317.19;;;3.90;87.75
69971;BME280;57301;50.328;8.542;2024-03-02T01:33:30;97317.09;;;3.53;88.61
69971;BME280;57301;50.328;8.542;2024-03-02T01:35:56;97311.56;;;3.56;88.50
69971;BME280;57301;50.328;8.542;2024-03-02T01:38:23;97305.72;;;3.62;88.30
69971;BME280;57301;50.328;8.542;2024-03-02T01:40:49;97304.88;;;3.71;88.33
69971;BME280;57301;50.328;8.542;2024-03-02T01:43:16;97299.59;;;3.71;88.03
69971;BME280;57301;50.328;8.542;2024-03-02T01:45:43;97294.31;;;3.62;89.43
69971;BME280;57301;50.328;8.542;2024-03-02T01:48:09;97292.56;;;3.62;89.13
69971;BME280;57301;50.328;8.542;2024-03-02T01:50:36;97292.41;;;3.64;89.66
69971;BME280;57301;50.328;8.542;2024-03-02T01:53:03;97290.44;;;3.66;89.75
69971;BME280;57301;50.328;8.542;2024-03-02T01:55:29;97287.50;;;3.78;88.84
69971;BME280;57301;50.328;8.542;2024-03-02T01:57:57;97284.91;;;3.59;89.44
69971;BME280;57301;50.328;8.542;2024-03-02T02:00:24;97291.03;;;3.40;88.65
69971;BME280;57301;50.328;8.542;2024-03-02T02:02:53;97278.09;;;3.18;88.82
69971;BME280;57301;50.328;8.542;2024-03-02T02:05:20;97272.28;;;3.05;88.65
69971;BME280;57301;50.328;8.542;2024-03-02T02:07:47;97273.13;;;3.15;88.13
69971;BME280;57301;50.328;8.542;2024-03-02T02:10:14;97265.47;;;2.92;88.75
69971;BME280;57301;50.328;8.542;2024-03-02T02:12:40;97266.47;;;3.11;87.62
69971;BME280;57301;50.328;8.542;2024-03-02T02:17:49;97256.50;;;3.14;87.85
69971;BME280;57301;50.328;8.542;2024-03-02T02:20:16;97254.41;;;3.18;87.71
69971;BME280;57301;50.328;8.542;2024-03-02T02:22:59;97256.22;;;3.08;88.07
69971;BME280;57301;50.328;8.542;2024-03-02T02:25:27;97259.38;;;3.11;88.20
69971;BME280;57301;50.328;8.542;2024-03-02T02:27:54;97250.66;;;3.11;88.19
69971;BME280;57301;50.328;8.542;2024-03-02T02:30:25;97251.91;;;3.16;88.53
69971;BME280;57301;50.328;8.542;2024-03-02T02:32:52;97254.13;;;3.02;88.89
69971;BME280;57301;50.328;8.542;2024-03-02T02:35:19;97249.66;;;2.92;88.48
69971;BME280;57301;50.328;8.542;2024-03-02T02:37:46;97245.25;;;2.93;89.02
69971;BME280;57301;50.328;8.542;2024-03-02T02:40:13;97247.44;;;2.88;88.98
69971;BME280;57301;50.328;8.542;2024-03-02T02:42:40;97246.06;;;2.84;88.55
69971;BME280;57301;50.328;8.542;2024-03-02T02:45:07;97251.84;;;2.68;89.41
69971;BME280;57301;50.328;8.542;2024-03-02T02:47:34;97237.88;;;2.77;88.93
69971;BME280;57301;50.328;8.542;2024-03-02T02:50:03;97246.97;;;2.63;89.37
69971;BME280;57301;50.328;8.542;2024-03-02T02:52:31;97243.66;;;2.52;89.82
69971;BME280;57301;50.328;8.542;2024-03-02T02:54:59;97233.16;;;2.71;88.35
69971;BME280;57301;50.328;8.542;2024-03-02T02:57:26;97242.41;;;2.56;88.96
69971;BME280;57301;50.328;8.542;2024-03-02T02:59:52;97231.47;;;2.60;88.37
69971;BME280;57301;50.328;8.542;2024-03-02T03:02:19;97226.47;;;2.57;88.97
69971;BME280;57301;50.328;8.542;2024-03-02T03:04:45;97228.84;;;2.60;88.93
69971;BME280;57301;50.328;8.542;2024-03-02T03:07:12;97222.75;;;2.60;88.65
69971;BME280;57301;50.328;8.542;2024-03-02T03:09:38;97232.84;;;2.55;89.25
69971;BME280;57301;50.328;8.542;2024-03-02T03:12:08;97231.06;;;2.65;88.44
69971;BME280;57301;50.328;8.542;2024-03-02T03:14:34;97234.75;;;2.43;88.92
69971;BME280;57301;50.328;8.542;2024-03-02T03:17:00;97233.47;;;2.37;88.93
69971;BME280;57301;50.328;8.542;2024-03-02T03:19:27;97230.41;;;2.23;89.01
69971;BME280;57301;50.328;8.542;2024-03-02T03:21:54;97235.09;;;2.19;88.81
69971;BME280;57301;50.328;8.542;2024-03-02T03:24:20;97234.75;;;2.03;89.21
69971;BME280;57301;50.328;8.542;2024-03-02T03:26:47;97229.53;;;2.12;89.16
69971;BME280;57301;50.328;8.542;2024-03-02T03:29:13;97228.44;;;2.15;89.50
69971;BME280;57301;50.328;8.542;2024-03-02T03:31:40;97227.69;;;2.03;90.19
69971;BME280;57301;50.328;8.542;2024-03-02T03:34:06;97230.19;;;2.05;90.68
69971;BME280;57301;50.328;8.542;2024-03-02T03:36:33;97233.03;;;2.23;90.42
69971;BME280;57301;50.328;8.542;2024-03-02T03:38:59;97223.88;;;2.27;90.42
69971;BME280;57301;50.328;8.542;2024-03-02T03:41:28;97218.47;;;2.19;92.02
69971;BME280;57301;50.328;8.542;2024-03-02T03:43:54;97231.53;;;2.30;90.97
69971;BME280;57301;50.328;8.542;2024-03-02T03:46:21;97235.56;;;2.34;90.64
69971;BME280;57301;50.328;8.542;2024-03-02T03:48:48;97236.50;;;2.23;91.32
69971;BME280;57301;50.328;8.542;2024-03-02T03:51:15;97244.63;;;1.89;91.77
69971;BME280;57301;50.328;8.542;2024-03-02T03:53:41;97236.31;;;1.84;93.48
69971;BME280;57301;50.328;8.542;2024-03-02T03:56:08;97246.41;;;2.10;92.75
69971;BME280;57301;50.328;8.542;2024-03-02T03:58:34;97244.91;;;2.17;91.82
69971;BME280;57301;50.328;8.542;2024-03-02T04:01:01;97246.44;;;2.20;92.15
69971;BME280;57301;50.328;8.542;2024-03-02T04:03:27;97250.47;;;2.24;91.64
69971;BME280;57301;50.328;8.542;2024-03-02T04:05:54;97244.38;;;1.93;94.17
69971;BME280;57301;50.328;8.542;2024-03-02T04:08:20;97243.63;;;2.11;92.82
69971;BME280;57301;50.328;8.542;2024-03-02T04:10:47;97241.16;;;1.89;94.38
69971;BME280;57301;50.328;8.542;2024-03-02T04:13:13;97229.59;;;2.01;94.14
69971;BME280;57301;50.328;8.542;2024-03-02T04:15:40;97238.09;;;2.14;95.20
69971;BME280;57301;50.328;8.542;2024-03-02T04:18:09;97238.97;;;2.15;95.36
69971;BME280;57301;50.328;8.542;2024-03-02T04:20:36;97238.97;;;2.25;94.31
69971;BME280;57301;50.328;8.542;2024-03-02T04:23:02;97243.06;;;2.08;94.40
69971;BME280;57301;50.328;8.542;2024-03-02T04:25:29;97242.78;;;1.80;94.60
69971;BME280;57301;50.328;8.542;2024-03-02T04:27:55;97243.88;;;2.08;94.50
69971;BME280;57301;50.328;8.542;2024-03-02T04:30:22;97235.09;;;2.19;94.25
69971;BME280;57301;50.328;8.542;2024-03-02T04:32:49;97235.91;;;2.20;93.78
69971;BME280;57301;50.328;8.542;2024-03-02T04:35:15;97233.03;;;2.32;92.67
69971;BME280;57301;50.328;8.542;2024-03-02T04:37:43;97236.94;;;2.38;92.87
69971;BME280;57301;50.328;8.542;2024-03-02T04:40:10;97228.94;;;2.49;92.09
69971;BME280;57301;50.328;8.542;2024-03-02T04:42:37;97238.94;;;2.46;92.26
69971;BME280;57301;50.328;8.542;2024-03-02T04:45:03;97232.28;;;2.51;91.55
69971;BME280;57301;50.328;8.542;2024-03-02T04:47:30;97241.56;;;2.55;91.34
69971;BME280;57301;50.328;8.542;2024-03-02T04:49:57;97242.78;;;2.41;91.78
69971;BME280;57301;50.328;8.542;2024-03-02T04:52:23;97243.47;;;2.43;91.13
69971;BME280;57301;50.328;8.542;2024-03-02T04:54:50;97244.00;;;2.28;91.60
69971;BME280;57301;50.328;8.542;2024-03-02T04:57:35;97243.34;;;2.05;91.58
69971;BME280;57301;50.328;8.542;2024-03-02T05:00:02;97242.72;;;2.22;90.78
69971;BME280;57301;50.328;8.542;2024-03-02T05:02:33;97247.53;;;2.17;91.02
69971;BME280;57301;50.328;8.542;2024-03-02T05:04:59;97244.09;;;2.76;93.56
69971;BME280;57301;50.328;8.542;2024-03-02T05:07:26;97248.31;;;3.08;91.40
69971;BME280;57301;50.328;8.542;2024-03-02T05:09:53;97242.50;;;3.33;89.65
69971;BME280;57301;50.328;8.542;2024-03-02T05:12:24;97250.25;;;3.44;89.58
69971;BME280;57301;50.328;8.542;2024-03-02T05:15:09;97253.44;;;3.29;88.42
69971;BME280;57301;50.328;8.542;2024-03-02T05:17:37;97248.28;;;3.37;88.99
69971;BME280;57301;50.328;8.542;2024-03-02T05:20:08;97251.78;;;3.47;88.09
69971;BME280;57301;50.328;8.542;2024-03-02T05:22:35;97253.88;;;3.14;87.07
69971;BME280;57301;50.328;8.542;2024-03-02T05:25:02;97253.97;;;2.84;86.16
69971;BME280;57301;50.328;8.542;2024-03-02T05:27:29;97259.97;;;3.34;88.19
69971;BME280;57301;50.328;8.542;2024-03-02T05:29:56;97259.66;;;2.89;87.17
69971;BME280;57301;50.328;8.542;2024-03-02T05:32:24;97263.97;;;2.90;88.04
69971;BME280;57301;50.328;8.542;2024-03-02T05:34:50;97269.13;;;3.20;88.43
69971;BME280;57301;50.328;8.542;2024-03-02T05:37:17;97264.47;;;3.90;87.31
69971;BME280;57301;50.328;8.542;2024-03-02T05:39:44;97266.63;;;4.04;86.14
69971;BME280;57301;50.328;8.542;2024-03-02T05:42:11;97262.72;;;4.55;85.42
69971;BME280;57301;50.328;8.542;2024-03-02T05:44:38;97261.44;;;4.22;83.49
69971;BME280;57301;50.328;8.542;2024-03-02T05:47:05;97278.28;;;3.26;84.13
69971;BME280;57301;50.328;8.542;2024-03-02T05:49:32;97273.06;;;3.92;83.05
69971;BME280;57301;50.328;8.542;2024-03-02T05:51:59;97275.91;;;3.23;83.52
69971;BME280;57301;50.328;8.542;2024-03-02T05:54:26;97276.53;;;2.86;83.61
69971;BME280;57301;50.328;8.542;2024-03-02T05:56:52;97282.16;;;2.53;84.71
69971;BME280;57301;50.328;8.542;2024-03-02T05:59:19;97288.34;;;2.42;85.83
69971;BME280;57301;50.328;8.542;2024-03-02T06:01:46;97285.00;;;2.40;85.66
69971;BME280;57301;50.328;8.542;2024-03-02T06:04:13;97288.94;;;2.25;86.17
69971;BME280;57301;50.328;8.542;2024-03-02T06:06:40;97284.06;;;2.20;86.38
69971;BME280;57301;50.328;8.542;2024-03-02T06:09:07;97292.41;;;2.25;87.71
69971;BME280;57301;50.328;8.542;2024-03-02T06:11:35;97292.47;;;2.04;87.84
69971;BME280;57301;50.328;8.542;2024-03-02T06:14:09;97298.47;;;2.16;88.48
69971;BME280;57301;50.328;8.542;2024-03-02T06:16:35;97303.53;;;2.38;87.72
69971;BME280;57301;50.328;8.542;2024-03-02T06:19:02;97296.91;;;2.13;89.40
69971;BME280;57301;50.328;8.542;2024-03-02T06:21:29;97306.16;;;2.38;89.17
69971;BME280;57301;50.328;8.542;2024-03-02T06:23:56;97301.44;;;2.32;88.29
69971;BME280;57301;50.328;8.542;2024-03-02T06:26:23;97293.53;;;2.23;88.44
69971;BME280;57301;50.328;8.542;2024-03-02T06:28:52;97294.72;;;2.19;88.57
69971;BME280;57301;50.328;8.542;2024-03-02T06:31:18;97296.59;;;2.28;88.50
69971;BME280;57301;50.328;8.542;2024-03-02T06:33:45;97295.41;;;2.11;89.58
69971;BME280;57301;50.328;8.542;2024-03-02T06:36:12;97295.19;;;2.24;88.94
69971;BME280;57301;50.328;8.542;2024-03-02T06:38:38;97297.22;;;2.20;89.55
69971;BME280;57301;50.328;8.542;2024-03-02T06:41:09;97295.03;;;2.25;88.63
69971;BME280;57301;50.328;8.542;2024-03-02T06:43:35;97310.38;;;2.20;88.17
69971;BME280;57301;50.328;8.542;2024-03-02T06:46:02;97309.09;;;2.14;89.00
69971;BME280;57301;50.328;8.542;2024-03-02T06:48:29;97310.28;;;2.22;89.44
69971;BME280;57301;50.328;8.542;2024-03-02T06:50:57;97302.75;;;2.48;88.88
69971;BME280;57301;50.328;8.542;2024-03-02T06:53:24;97305.06;;;2.72;89.39
69971;BME280;57301;50.328;8.542;2024-03-02T06:55:51;97306.88;;;2.81;89.37
69971;BME280;57301;50.328;8.542;2024-03-02T06:58:20;97309.53;;;2.90;89.05
69971;BME280;57301;50.328;8.542;2024-03-02T07:00:46;97316.78;;;2.58;89.75
69971;BME280;57301;50.328;8.542;2024-03-02T07:03:14;97318.94;;;2.43;89.36
69971;BME280;57301;50.328;8.542;2024-03-02T07:05:41;97314.19;;;2.67;88.07
69971;BME280;57301;50.328;8.542;2024-03-02T07:08:08;97329.63;;;2.51;88.38
69971;BME280;57301;50.328;8.542;2024-03-02T07:10:34;97331.97;;;2.94;88.39
69971;BME280;57301;50.328;8.542;2024-03-02T07:13:01;97328.16;;;3.08;89.49
69971;BME280;57301;50.328;8.542;2024-03-02T07:15:28;97321.94;;;3.29;88.67
69971;BME280;57301;50.328;8.542;2024-03-02T07:17:55;97328.47;;;3.44;89.02
69971;BME280;57301;50.328;8.542;2024-03-02T07:20:21;97316.28;;;3.62;89.80
69971;BME280;57301;50.328;8.542;2024-03-02T07:22:48;97322.88;;;3.95;88.71
69971;BME280;57301;50.328;8.542;2024-03-02T07:25:14;97325.16;;;3.81;88.79
69971;BME280;57301;50.328;8.542;2024-03-02T07:27:44;97326.34;;;3.96;90.24
69971;BME280;57301;50.328;8.542;2024-03-02T07:30:14;97335.88;;;4.16;89.69
69971;BME280;57301;50.328;8.542;2024-03-02T07:32:42;97328.19;;;4.42;89.35
69971;BME280;57301;50.328;8.542;2024-03-02T07:35:12;97330.56;;;6.25;84.97
69971;BME280;57301;50.328;8.542;2024-03-02T07:37:41;97324.31;;;6.52;82.44
69971;BME280;57301;50.328;8.542;2024-03-02T07:40:08;97334.00;;;6.69;82.07
69971;BME280;57301;50.328;8.542;2024-03-02T07:42:40;97337.03;;;7.25;79.58
69971;BME280;57301;50.328;8.542;2024-03-02T07:45:07;97332.63;;;8.31;77.58
69971;BME280;57301;50.328;8.542;2024-03-02T07:47:34;97333.63;;;9.10;74.18
69971;BME280;57301;50.328;8.542;2024-03-02T07:50:02;97335.25;;;9.74;71.09
69971;BME280;57301;50.328;8.542;2024-03-02T07:52:29;97338.66;;;10.05;70.66
69971;BME280;57301;50.328;8.542;2024-03-02T07:54:55;97344.88;;;9.75;71.40
69971;BME280;57301;50.328;8.542;2024-03-02T07:57:22;97350.94;;;9.37;72.66
69971;BME280;57301;50.328;8.542;2024-03-02T07:59:49;97353.81;;;10.80;67.91
69971;BME280;57301;50.328;8.542;2024-03-02T08:02:16;97336.78;;;12.19;62.82
69971;BME280;57301;50.328;8.542;2024-03-02T08:04:43;97340.56;;;12.87;61.67
69971;BME280;57301;50.328;8.542;2024-03-02T08:07:09;97339.25;;;13.46;57.48
69971;BME280;57301;50.328;8.542;2024-03-02T08:09:36;97345.16;;;12.37;60.20
69971;BME280;57301;50.328;8.542;2024-03-02T08:12:02;97351.06;;;10.73;66.03
69971;BME280;57301;50.328;8.542;2024-03-02T08:14:29;97364.03;;;9.08;70.01
69971;BME280;57301;50.328;8.542;2024-03-02T08:16:55;97353.75;;;9.05;71.35
69971;BME280;57301;50.328;8.542;2024-03-02T08:19:23;97358.88;;;9.06;72.62
69971;BME280;57301;50.328;8.542;2024-03-02T08:21:49;97354.13;;;9.64;70.58
69971;BME280;57301;50.328;8.542;2024-03-02T08:24:18;97354.06;;;9.41;70.18
69971;BME280;57301;50.328;8.542;2024-03-02T08:26:45;97349.13;;;9.61;69.94
69971;BME280;57301;50.328;8.542;2024-03-02T08:29:11;97343.88;;;9.53;70.04
69971;BME280;57301;50.328;8.542;2024-03-02T08:31:39;97355.94;;;9.32;70.38
69971;BME280;57301;50.328;8.542;2024-03-02T08:34:10;97347.47;;;9.60;69.62
69971;BME280;57301;50.328;8.542;2024-03-02T08:36:37;97355.50;;;9.21;72.36
69971;BME280;57301;50.328;8.542;2024-03-02T08:39:04;97354.28;;;9.31;71.10
69971;BME280;57301;50.328;8.542;2024-03-02T08:41:33;97355.88;;;9.49;71.57
69971;BME280;57301;50.328;8.542;2024-03-02T08:44:00;97364.03;;;9.39;71.04
69971;BME280;57301;50.328;8.542;2024-03-02T08:46:27;97358.78;;;9.31;71.93
69971;BME280;57301;50.328;8.542;2024-03-02T08:48:53;97363.09;;;8.93;71.85
69971;BME280;57301;50.328;8.542;2024-03-02T08:51:20;97363.03;;;9.48;70.89
69971;BME280;57301;50.328;8.542;2024-03-02T08:53:46;97372.06;;;9.70;70.46
69971;BME280;57301;50.328;8.542;2024-03-02T08:56:13;97363.53;;;9.43;70.05
69971;BME280;57301;50.328;8.542;2024-03-02T08:58:43;97365.47;;;9.81;68.78
69971;BME280;57301;50.328;8.542;2024-03-02T09:01:10;97363.44;;;9.60;70.16
69971;BME280;57301;50.328;8.542;2024-03-02T09:03:37;97369.50;;;9.77;68.29
69971;BME280;57301;50.328;8.542;2024-03-02T09:06:04;97366.94;;;9.29;69.38
69971;BME280;57301;50.328;8.542;2024-03-02T09:08:31;97365.75;;;9.63;70.20
69971;BME280;57301;50.328;8.542;2024-03-02T09:10:57;97360.56;;;9.92;67.29
69971;BME280;57301;50.328;8.542;2024-03-02T09:13:24;97362.16;;;10.47;65.84
69971;BME280;57301;50.328;8.542;2024-03-02T09:15:51;97366.19;;;10.20;65.56
69971;BME280;57301;50.328;8.542;2024-03-02T09:18:18;97368.72;;;10.37;64.68
69971;BME280;57301;50.328;8.542;2024-03-02T09:20:44;97358.69;;;10.24;64.14
69971;BME280;57301;50.328;8.542;2024-03-02T09:23:12;97358.91;;;10.75;63.45
69971;BME280;57301;50.328;8.542;2024-03-02T09:25:38;97353.91;;;10.72;63.82
69971;BME280;57301;50.328;8.542;2024-03-02T09:28:05;97339.56;;;11.17;62.64
69971;BME280;57301;50.328;8.542;2024-03-02T09:30:33;97345.06;;;10.86;62.94
69971;BME280;57301;50.328;8.542;2024-03-02T09:33:00;97333.69;;;13.06;57.45
69971;BME280;57301;50.328;8.542;2024-03-02T09:35:29;97340.63;;;12.10;58.46
69971;BME280;57301;50.328;8.542;2024-03-02T09:37:56;97336.81;;;13.51;54.92
69971;BME280;57301;50.328;8.542;2024-03-02T09:40:22;97333.75;;;13.67;53.61
69971;BME280;57301;50.328;8.542;2024-03-02T09:42:49;97334.47;;;14.22;52.40
69971;BME280;57301;50.328;8.542;2024-03-02T09:45:22;97329.53;;;14.33;50.44
69971;BME280;57301;50.328;8.542;2024-03-02T09:47:50;97333.03;;;14.00;51.16
69971;BME280;57301;50.328;8.542;2024-03-02T09:50:16;97331.84;;;15.33;47.18
69971;BME280;57301;50.328;8.542;2024-03-02T09:52:44;97331.84;;;14.56;48.52
69971;BME280;57301;50.328;8.542;2024-03-02T09:55:11;97334.59;;;13.20;50.30
69971;BME280;57301;50.328;8.542;2024-03-02T09:57:38;97341.06;;;11.92;54.06
69971;BME280;57301;50.328;8.542;2024-03-02T10:00:07;97335.84;;;11.48;56.60
69971;BME280;57301;50.328;8.542;2024-03-02T10:02:34;97347.22;;;11.06;58.00
69971;BME280;57301;50.328;8.542;2024-03-02T10:05:00;97335.03;;;10.44;59.00
69971;BME280;57301;50.328;8.542;2024-03-02T10:07:30;97339.13;;;10.69;59.56
69971;BME280;57301;50.328;8.542;2024-03-02T10:09:57;97342.41;;;10.57;59.54
69971;BME280;57301;50.328;8.542;2024-03-02T10:12:23;97336.34;;;10.77;59.67
69971;BME280;57301;50.328;8.542;2024-03-02T10:15:03;97336.69;;;10.45;60.96
69971;BME280;57301;50.328;8.542;2024-03-02T10:17:31;97342.63;;;10.99;59.14
69971;BME280;57301;50.328;8.542;2024-03-02T10:19:58;97340.63;;;11.38;58.39
69971;BME280;57301;50.328;8.542;2024-03-02T10:22:24;97334.31;;;11.09;59.13
69971;BME280;57301;50.328;8.542;2024-03-02T10:24:53;97336.25;;;10.71;58.29
69971;BME280;57301;50.328;8.542;2024-03-02T10:27:27;97327.22;;;11.16;57.62
69971;BME280;57301;50.328;8.542;2024-03-02T10:29:53;97332.09;;;11.27;57.06
69971;BME280;57301;50.328;8.542;2024-03-02T10:32:22;97329.19;;;11.80;56.01
69971;BME280;57301;50.328;8.542;2024-03-02T10:34:50;97331.00;;;11.94;55.26
69971;BME280;57301;50.328;8.542;2024-03-02T10:37:16;97331.25;;;11.99;55.12
69971;BME280;57301;50.328;8.542;2024-03-02T10:39:46;97331.97;;;11.87;55.37
69971;BME280;57301;50.328;8.542;2024-03-02T10:42:14;97336.41;;;11.43;57.32
69971;BME280;57301;50.328;8.542;2024-03-02T10:44:41;97332.22;;;12.69;53.77
69971;BME280;57301;50.328;8.542;2024-03-02T10:47:08;97324.59;;;13.01;53.58
69971;BME280;57301;50.328;8.542;2024-03-02T10:49:36;97319.63;;;14.20;51.16
69971;BME280;57301;50.328;8.542;2024-03-02T10:52:04;97314.03;;;14.41;50.54
69971;BME280;57301;50.328;8.542;2024-03-02T10:54:31;97312.06;;;15.73;46.63
69971;BME280;57301;50.328;8.542;2024-03-02T10:57:04;97312.63;;;14.59;47.53
69971;BME280;57301;50.328;8.542;2024-03-02T10:59:33;97318.94;;;13.71;49.64
69971;BME280;57301;50.328;8.542;2024-03-02T11:02:02;97312.31;;;13.61;50.00
69971;BME280;57301;50.328;8.542;2024-03-02T11:04:31;97307.06;;;13.26;50.53
69971;BME280;57301;50.328;8.542;2024-03-02T11:07:06;97299.31;;;13.10;50.92
69971;BME280;57301;50.328;8.542;2024-03-02T11:09:37;97312.78;;;12.26;52.61
69971;BME280;57301;50.328;8.542;2024-03-02T11:12:28;97305.91;;;13.55;50.27
69971;BME280;57301;50.328;8.542;2024-03-02T11:14:56;97308.06;;;13.25;51.78
69971;BME280;57301;50.328;8.542;2024-03-02T11:17:23;97305.34;;;13.86;50.24
69971;BME280;57301;50.328;8.542;2024-03-02T11:19:51;97309.22;;;13.64;51.19
69971;BME280;57301;50.328;8.542;2024-03-02T11:22:21;97306.59;;;13.84;50.57
69971;BME280;57301;50.328;8.542;2024-03-02T11:24:52;97299.69;;;13.48;51.24
69971;BME280;57301;50.328;8.542;2024-03-02T11:33:06;97294.88;;;14.58;49.06
69971;BME280;57301;50.328;8.542;2024-03-02T11:35:42;97291.38;;;14.44;48.66
69971;BME280;57301;50.328;8.542;2024-03-02T11:38:10;97291.38;;;15.22;47.51
69971;BME280;57301;50.328;8.542;2024-03-02T11:40:39;97291.03;;;15.56;46.93
69971;BME280;57301;50.328;8.542;2024-03-02T11:43:06;97288.50;;;15.23;46.91
69971;BME280;57301;50.328;8.542;2024-03-02T11:45:36;97288.28;;;14.47;48.77
69971;BME280;57301;50.328;8.542;2024-03-02T11:48:06;97283.94;;;14.39;48.42
69971;BME280;57301;50.328;8.542;2024-03-02T11:50:35;97283.31;;;14.17;49.91
69971;BME280;57301;50.328;8.542;2024-03-02T11:53:05;97275.00;;;13.59;50.78
69971;BME280;57301;50.328;8.542;2024-03-02T11:55:36;97263.94;;;14.62;49.18
69971;BME280;57301;50.328;8.542;2024-03-02T11:58:06;97265.34;;;16.49;44.17
69971;BME280;57301;50.328;8.542;2024-03-02T12:00:33;97258.53;;;16.03;45.15
69971;BME280;57301;50.328;8.542;2024-03-02T12:05:27;97263.84;;;17.81;40.80
69971;BME280;57301;50.328;8.542;2024-03-02T12:07:56;97256.09;;;18.50;39.29
69971;BME280;57301;50.328;8.542;2024-03-02T12:10:24;97251.16;;;18.94;39.38
69971;BME280;57301;50.328;8.542;2024-03-02T12:12:58;97258.22;;;17.34;41.79
69971;BME280;57301;50.328;8.542;2024-03-02T12:15:29;97243.63;;;18.84;38.37
69971;BME280;57301;50.328;8.542;2024-03-02T12:17:58;97249.00;;;19.59;37.79
69971;BME280;57301;50.328;8.542;2024-03-02T12:20:27;97246.19;;;17.00;42.17
69971;BME280;57301;50.328;8.542;2024-03-02T12:22:58;97244.91;;;17.39;41.59
69971;BME280;57301;50.328;8.542;2024-03-02T12:25:26;97237.50;;;19.00;38.43
69971;BME280;57301;50.328;8.542;2024-03-02T12:27:57;97241.59;;;17.67;40.91
69971;BME280;57301;50.328;8.542;2024-03-02T12:30:27;97229.56;;;19.34;36.88
69971;BME280;57301;50.328;8.542;2024-03-02T12:32:58;97233.47;;;19.83;35.64
69971;BME280;57301;50.328;8.542;2024-03-02T12:35:25;97225.69;;;20.21;35.81
69971;BME280;57301;50.328;8.542;2024-03-02T12:37:53;97236.69;;;18.53;39.04
69971;BME280;57301;50.328;8.542;2024-03-02T12:40:23;97228.94;;;18.10;38.75
69971;BME280;57301;50.328;8.542;2024-03-02T12:42:50;97222.34;;;19.97;36.08
69971;BME280;57301;50.328;8.542;2024-03-02T12:45:18;97214.31;;;22.16;32.82
69971;BME280;57301;50.328;8.542;2024-03-02T12:47:53;97227.91;;;20.57;35.39
69971;BME280;57301;50.328;8.542;2024-03-02T12:50:21;97217.38;;;20.61;34.55
69971;BME280;57301;50.328;8.542;2024-03-02T12:55:20;97210.41;;;19.81;35.09
69971;BME280;57301;50.328;8.542;2024-03-02T12:57:46;97211.94;;;18.91;36.76
69971;BME280;57301;50.328;8.542;2024-03-02T13:00:18;97210.34;;;19.47;35.83
69971;BME280;57301;50.328;8.542;2024-03-02T13:02:46;97202.50;;;21.46;33.08
69971;BME280;57301;50.328;8.542;2024-03-02T13:05:12;97198.28;;;20.89;33.11
69971;BME280;57301;50.328;8.542;2024-03-02T13:07:40;97203.16;;;20.32;34.12
69971;BME280;57301;50.328;8.542;2024-03-02T13:10:07;97199.19;;;20.39;34.73
69971;BME280;57301;50.328;8.542;2024-03-02T13:12:37;97190.47;;;21.15;32.04
69971;BME280;57301;50.328;8.542;2024-03-02T13:15:04;97192.78;;;20.12;34.67
69971;BME280;57301;50.328;8.542;2024-03-02T13:17:34;97194.75;;;21.33;33.86
69971;BME280;57301;50.328;8.542;2024-03-02T13:20:04;97192.94;;;20.95;33.65
69971;BME280;57301;50.328;8.542;2024-03-02T13:22:35;97195.13;;;21.68;33.35
69971;BME280;57301;50.328;8.542;2024-03-02T13:25:03;97197.44;;;21.82;32.38